Aviation Digital Data Service (ADDS)

Output produced by METARs form (0639 UTC 19 February 2019)
found at http://www.aviationweather.gov/metar/data/
 
METAR text: OIKB 190630Z 35004KT CAVOK 17/12 Q1011 A2986
Conditions at: OIKB (BANDAR ABBAS INT, IR) observed 0630 UTC 19 February 2019
Temperature: 17.0°C (63°F)
Dewpoint: 12.0°C (54°F) [RH = 72%]
Pressure (altimeter): 29.85 inches Hg (1011.0 mb)
Winds: from the N (350 degrees) at 5 MPH (4 knots; 2.1 m/s)
Visibility: 6 or more miles (10+ km)
Ceiling: ceiling and visibility are OK
Clouds: unknown
Weather: no significant weather observed at this time

METAR text: OIKB 190600Z 04004KT 9999 FEW025 OVC200 17/13 Q1011 A2986 NOSIG
Conditions at: OIKB (BANDAR ABBAS INT, IR) observed 0600 UTC 19 February 2019
Temperature: 17.0°C (63°F)
Dewpoint: 13.0°C (55°F) [RH = 77%]
Pressure (altimeter): 29.85 inches Hg (1011.0 mb)
Winds: from the NE (40 degrees) at 5 MPH (4 knots; 2.1 m/s)
Visibility: 6 or more miles (10+ km)
Ceiling: 20000 feet AGL
Clouds: few clouds at 2500 feet AGL
overcast cloud deck at 20000 feet AGL
Weather: no significant weather observed at this time

METAR text: OIKB 190530Z 01004KT 9999 FEW025 OVC200 17/10 Q1011 A2986
Conditions at: OIKB (BANDAR ABBAS INT, IR) observed 0530 UTC 19 February 2019
Temperature: 17.0°C (63°F)
Dewpoint: 10.0°C (50°F) [RH = 63%]
Pressure (altimeter): 29.85 inches Hg (1011.0 mb)
Winds: from the N (10 degrees) at 5 MPH (4 knots; 2.1 m/s)
Visibility: 6 or more miles (10+ km)
Ceiling: 20000 feet AGL
Clouds: few clouds at 2500 feet AGL
overcast cloud deck at 20000 feet AGL
Weather: no significant weather observed at this time

METAR text: OIKB 190500Z 02006KT 9999 FEW025 OVC200 17/11 Q1010 A2985 NOSIG
Conditions at: OIKB (BANDAR ABBAS INT, IR) observed 0500 UTC 19 February 2019
Temperature: 17.0°C (63°F)
Dewpoint: 11.0°C (52°F) [RH = 68%]
Pressure (altimeter): 29.82 inches Hg (1010.0 mb)
Winds: from the NNE (20 degrees) at 7 MPH (6 knots; 3.1 m/s)
Visibility: 6 or more miles (10+ km)
Ceiling: 20000 feet AGL
Clouds: few clouds at 2500 feet AGL
overcast cloud deck at 20000 feet AGL
Weather: no significant weather observed at this time

METAR text: OIKB 190430Z 07004KT 9999 FEW030 OVC200 16/11 Q1010 A2985
Conditions at: OIKB (BANDAR ABBAS INT, IR) observed 0430 UTC 19 February 2019
Temperature: 16.0°C (61°F)
Dewpoint: 11.0°C (52°F) [RH = 72%]
Pressure (altimeter): 29.82 inches Hg (1010.0 mb)
Winds: from the ENE (70 degrees) at 5 MPH (4 knots; 2.1 m/s)
Visibility: 6 or more miles (10+ km)
Ceiling: 20000 feet AGL
Clouds: few clouds at 3000 feet AGL
overcast cloud deck at 20000 feet AGL
Weather: no significant weather observed at this time

METAR text: OIKB 190400Z 35004KT 9999 FEW030 OVC200 14/11 Q1010 A2984 NOSIG
Conditions at: OIKB (BANDAR ABBAS INT, IR) observed 0400 UTC 19 February 2019
Temperature: 14.0°C (57°F)
Dewpoint: 11.0°C (52°F) [RH = 82%]
Pressure (altimeter): 29.82 inches Hg (1010.0 mb)
Winds: from the N (350 degrees) at 5 MPH (4 knots; 2.1 m/s)
Visibility: 6 or more miles (10+ km)
Ceiling: 20000 feet AGL
Clouds: few clouds at 3000 feet AGL
overcast cloud deck at 20000 feet AGL
Weather: no significant weather observed at this time

METAR text: OIKB 190330Z 31006KT CAVOK 13/10 Q1010 A2983
Conditions at: OIKB (BANDAR ABBAS INT, IR) observed 0330 UTC 19 February 2019
Temperature: 13.0°C (55°F)
Dewpoint: 10.0°C (50°F) [RH = 82%]
Pressure (altimeter): 29.82 inches Hg (1010.0 mb)
Winds: from the NW (310 degrees) at 7 MPH (6 knots; 3.1 m/s)
Visibility: 6 or more miles (10+ km)
Ceiling: ceiling and visibility are OK
Clouds: unknown
Weather: no significant weather observed at this time

METAR text: OIKB 190300Z 35004KT CAVOK 13/09 Q1010 A2983 NOSIG
Conditions at: OIKB (BANDAR ABBAS INT, IR) observed 0300 UTC 19 February 2019
Temperature: 13.0°C (55°F)
Dewpoint: 9.0°C (48°F) [RH = 77%]
Pressure (altimeter): 29.82 inches Hg (1010.0 mb)
Winds: from the N (350 degrees) at 5 MPH (4 knots; 2.1 m/s)
Visibility: 6 or more miles (10+ km)
Ceiling: ceiling and visibility are OK
Clouds: unknown
Weather: no significant weather observed at this time

METAR text: OIKB 190230Z 00000KT CAVOK 14/10 Q1009 A2981
Conditions at: OIKB (BANDAR ABBAS INT, IR) observed 0230 UTC 19 February 2019
Temperature: 14.0°C (57°F)
Dewpoint: 10.0°C (50°F) [RH = 77%]
Pressure (altimeter): 29.79 inches Hg (1009.0 mb)
Winds: calm
Visibility: 6 or more miles (10+ km)
Ceiling: ceiling and visibility are OK
Clouds: unknown
Weather: no significant weather observed at this time

METAR text: OIKB 190200Z 36004KT 9999 FEW035 SCT200 13/10 Q1009 A2980
Conditions at: OIKB (BANDAR ABBAS INT, IR) observed 0200 UTC 19 February 2019
Temperature: 13.0°C (55°F)
Dewpoint: 10.0°C (50°F) [RH = 82%]
Pressure (altimeter): 29.79 inches Hg (1009.0 mb)
Winds: from the N (360 degrees) at 5 MPH (4 knots; 2.1 m/s)
Visibility: 6 or more miles (10+ km)
Ceiling: at least 12,000 feet AGL
Clouds: few clouds at 3500 feet AGL
scattered clouds at 20000 feet AGL
Weather: no significant weather observed at this time

METAR text: OIKB 190100Z VRB02KT 9999 SCT030 14/09 Q1008 A2979
Conditions at: OIKB (BANDAR ABBAS INT, IR) observed 0100 UTC 19 February 2019
Temperature: 14.0°C (57°F)
Dewpoint: 9.0°C (48°F) [RH = 72%]
Pressure (altimeter): 29.76 inches Hg (1008.0 mb)
Winds: variable direction winds at 2 MPH (2 knots; 1.0 m/s)
Visibility: 6 or more miles (10+ km)
Ceiling: at least 12,000 feet AGL
Clouds: scattered clouds at 3000 feet AGL
Weather: no significant weather observed at this time

METAR text: OIKB 190000Z 35004KT CAVOK 14/09 Q1008 A2978
Conditions at: OIKB (BANDAR ABBAS INT, IR) observed 0000 UTC 19 February 2019
Temperature: 14.0°C (57°F)
Dewpoint: 9.0°C (48°F) [RH = 72%]
Pressure (altimeter): 29.76 inches Hg (1008.0 mb)
Winds: from the N (350 degrees) at 5 MPH (4 knots; 2.1 m/s)
Visibility: 6 or more miles (10+ km)
Ceiling: ceiling and visibility are OK
Clouds: unknown
Weather: no significant weather observed at this time

METAR text: OIKB 182300Z 35004KT 9999 FEW100 SCT200 16/09 Q1009 A2980
Conditions at: OIKB (BANDAR ABBAS INT, IR) observed 2300 UTC 18 February 2019
Temperature: 16.0°C (61°F)
Dewpoint: 9.0°C (48°F) [RH = 63%]
Pressure (altimeter): 29.79 inches Hg (1009.0 mb)
Winds: from the N (350 degrees) at 5 MPH (4 knots; 2.1 m/s)
Visibility: 6 or more miles (10+ km)
Ceiling: at least 12,000 feet AGL
Clouds: few clouds at 10000 feet AGL
scattered clouds at 20000 feet AGL
Weather: no significant weather observed at this time

METAR text: OIKB 182200Z 01004KT 9999 FEW100 SCT200 16/09 Q1009 A2980
Conditions at: OIKB (BANDAR ABBAS INT, IR) observed 2200 UTC 18 February 2019
Temperature: 16.0°C (61°F)
Dewpoint: 9.0°C (48°F) [RH = 63%]
Pressure (altimeter): 29.79 inches Hg (1009.0 mb)
Winds: from the N (10 degrees) at 5 MPH (4 knots; 2.1 m/s)
Visibility: 6 or more miles (10+ km)
Ceiling: at least 12,000 feet AGL
Clouds: few clouds at 10000 feet AGL
scattered clouds at 20000 feet AGL
Weather: no significant weather observed at this time

METAR text: OIKB 182130Z 28004KT 9999 FEW100 SCT200 18/09 Q1009 A2981
Conditions at: OIKB (BANDAR ABBAS INT, IR) observed 2130 UTC 18 February 2019
Temperature: 18.0°C (64°F)
Dewpoint: 9.0°C (48°F) [RH = 56%]
Pressure (altimeter): 29.79 inches Hg (1009.0 mb)
Winds: from the W (280 degrees) at 5 MPH (4 knots; 2.1 m/s)
Visibility: 6 or more miles (10+ km)
Ceiling: at least 12,000 feet AGL
Clouds: few clouds at 10000 feet AGL
scattered clouds at 20000 feet AGL
Weather: no significant weather observed at this time

METAR text: OIKB 182100Z 28004KT 9999 FEW100 SCT200 18/09 Q1009 A2981
Conditions at: OIKB (BANDAR ABBAS INT, IR) observed 2100 UTC 18 February 2019
Temperature: 18.0°C (64°F)
Dewpoint: 9.0°C (48°F) [RH = 56%]
Pressure (altimeter): 29.79 inches Hg (1009.0 mb)
Winds: from the W (280 degrees) at 5 MPH (4 knots; 2.1 m/s)
Visibility: 6 or more miles (10+ km)
Ceiling: at least 12,000 feet AGL
Clouds: few clouds at 10000 feet AGL
scattered clouds at 20000 feet AGL
Weather: no significant weather observed at this time

METAR text: OIKB 182030Z 28004KT 9999 FEW100 SCT200 18/09 Q1009 A2981
Conditions at: OIKB (BANDAR ABBAS INT, IR) observed 2030 UTC 18 February 2019
Temperature: 18.0°C (64°F)
Dewpoint: 9.0°C (48°F) [RH = 56%]
Pressure (altimeter): 29.79 inches Hg (1009.0 mb)
Winds: from the W (280 degrees) at 5 MPH (4 knots; 2.1 m/s)
Visibility: 6 or more miles (10+ km)
Ceiling: at least 12,000 feet AGL
Clouds: few clouds at 10000 feet AGL
scattered clouds at 20000 feet AGL
Weather: no significant weather observed at this time

METAR text: OIKB 182000Z 27004KT 9999 FEW100 SCT200 19/10 Q1009 A2982
Conditions at: OIKB (BANDAR ABBAS INT, IR) observed 2000 UTC 18 February 2019
Temperature: 19.0°C (66°F)
Dewpoint: 10.0°C (50°F) [RH = 56%]
Pressure (altimeter): 29.79 inches Hg (1009.0 mb)
Winds: from the W (270 degrees) at 5 MPH (4 knots; 2.1 m/s)
Visibility: 6 or more miles (10+ km)
Ceiling: at least 12,000 feet AGL
Clouds: few clouds at 10000 feet AGL
scattered clouds at 20000 feet AGL
Weather: no significant weather observed at this time

METAR text: OIKB 181930Z 28004KT 9999 FEW100 SCT200 19/10 Q1009 A2982
Conditions at: OIKB (BANDAR ABBAS INT, IR) observed 1930 UTC 18 February 2019
Temperature: 19.0°C (66°F)
Dewpoint: 10.0°C (50°F) [RH = 56%]
Pressure (altimeter): 29.79 inches Hg (1009.0 mb)
Winds: from the W (280 degrees) at 5 MPH (4 knots; 2.1 m/s)
Visibility: 6 or more miles (10+ km)
Ceiling: at least 12,000 feet AGL
Clouds: few clouds at 10000 feet AGL
scattered clouds at 20000 feet AGL
Weather: no significant weather observed at this time

METAR text: OIKB 181900Z 28004KT 9999 FEW100 SCT200 19/10 Q1009 A2982
Conditions at: OIKB (BANDAR ABBAS INT, IR) observed 1900 UTC 18 February 2019
Temperature: 19.0°C (66°F)
Dewpoint: 10.0°C (50°F) [RH = 56%]
Pressure (altimeter): 29.79 inches Hg (1009.0 mb)
Winds: from the W (280 degrees) at 5 MPH (4 knots; 2.1 m/s)
Visibility: 6 or more miles (10+ km)
Ceiling: at least 12,000 feet AGL
Clouds: few clouds at 10000 feet AGL
scattered clouds at 20000 feet AGL
Weather: no significant weather observed at this time

METAR text: OIKB 181830Z 24006KT CAVOK 20/10 Q1009 A2982
Conditions at: OIKB (BANDAR ABBAS INT, IR) observed 1830 UTC 18 February 2019
Temperature: 20.0°C (68°F)
Dewpoint: 10.0°C (50°F) [RH = 53%]
Pressure (altimeter): 29.79 inches Hg (1009.0 mb)
Winds: from the WSW (240 degrees) at 7 MPH (6 knots; 3.1 m/s)
Visibility: 6 or more miles (10+ km)
Ceiling: ceiling and visibility are OK
Clouds: unknown
Weather: no significant weather observed at this time

METAR text: OIKB 181800Z 23008KT CAVOK 20/10 Q1009 A2982
Conditions at: OIKB (BANDAR ABBAS INT, IR) observed 1800 UTC 18 February 2019
Temperature: 20.0°C (68°F)
Dewpoint: 10.0°C (50°F) [RH = 53%]
Pressure (altimeter): 29.79 inches Hg (1009.0 mb)
Winds: from the SW (230 degrees) at 9 MPH (8 knots; 4.1 m/s)
Visibility: 6 or more miles (10+ km)
Ceiling: ceiling and visibility are OK
Clouds: unknown
Weather: no significant weather observed at this time

METAR text: OIKB 181730Z 23010KT CAVOK 20/11 Q1009 A2981
Conditions at: OIKB (BANDAR ABBAS INT, IR) observed 1730 UTC 18 February 2019
Temperature: 20.0°C (68°F)
Dewpoint: 11.0°C (52°F) [RH = 56%]
Pressure (altimeter): 29.79 inches Hg (1009.0 mb)
Winds: from the SW (230 degrees) at 12 MPH (10 knots; 5.1 m/s)
Visibility: 6 or more miles (10+ km)
Ceiling: ceiling and visibility are OK
Clouds: unknown
Weather: no significant weather observed at this time

METAR text: OIKB 181700Z 23010KT CAVOK 20/11 Q1009 A2981
Conditions at: OIKB (BANDAR ABBAS INT, IR) observed 1700 UTC 18 February 2019
Temperature: 20.0°C (68°F)
Dewpoint: 11.0°C (52°F) [RH = 56%]
Pressure (altimeter): 29.79 inches Hg (1009.0 mb)
Winds: from the SW (230 degrees) at 12 MPH (10 knots; 5.1 m/s)
Visibility: 6 or more miles (10+ km)
Ceiling: ceiling and visibility are OK
Clouds: unknown
Weather: no significant weather observed at this time

METAR text: OIKB 181630Z 23008KT CAVOK 20/11 Q1009 A2980
Conditions at: OIKB (BANDAR ABBAS INT, IR) observed 1630 UTC 18 February 2019
Temperature: 20.0°C (68°F)
Dewpoint: 11.0°C (52°F) [RH = 56%]
Pressure (altimeter): 29.79 inches Hg (1009.0 mb)
Winds: from the SW (230 degrees) at 9 MPH (8 knots; 4.1 m/s)
Visibility: 6 or more miles (10+ km)
Ceiling: ceiling and visibility are OK
Clouds: unknown
Weather: no significant weather observed at this time

METAR text: OIKB 181600Z 23008KT CAVOK 20/11 Q1009 A2980
Conditions at: OIKB (BANDAR ABBAS INT, IR) observed 1600 UTC 18 February 2019
Temperature: 20.0°C (68°F)
Dewpoint: 11.0°C (52°F) [RH = 56%]
Pressure (altimeter): 29.79 inches Hg (1009.0 mb)
Winds: from the SW (230 degrees) at 9 MPH (8 knots; 4.1 m/s)
Visibility: 6 or more miles (10+ km)
Ceiling: ceiling and visibility are OK
Clouds: unknown
Weather: no significant weather observed at this time

METAR text: OIKB 181530Z 23012KT CAVOK 20/09 Q1009 A2980
Conditions at: OIKB (BANDAR ABBAS INT, IR) observed 1530 UTC 18 February 2019
Temperature: 20.0°C (68°F)
Dewpoint: 9.0°C (48°F) [RH = 49%]
Pressure (altimeter): 29.79 inches Hg (1009.0 mb)
Winds: from the SW (230 degrees) at 14 MPH (12 knots; 6.2 m/s)
Visibility: 6 or more miles (10+ km)
Ceiling: ceiling and visibility are OK
Clouds: unknown
Weather: no significant weather observed at this time

METAR text: OIKB 181500Z 23010KT CAVOK 21/09 Q1008 A2979 NOSIG
Conditions at: OIKB (BANDAR ABBAS INT, IR) observed 1500 UTC 18 February 2019
Temperature: 21.0°C (70°F)
Dewpoint: 9.0°C (48°F) [RH = 46%]
Pressure (altimeter): 29.76 inches Hg (1008.0 mb)
Winds: from the SW (230 degrees) at 12 MPH (10 knots; 5.1 m/s)
Visibility: 6 or more miles (10+ km)
Ceiling: ceiling and visibility are OK
Clouds: unknown
Weather: no significant weather observed at this time

METAR text: OIKB 181430Z 22012KT CAVOK 21/10 Q1008 A2979
Conditions at: OIKB (BANDAR ABBAS INT, IR) observed 1430 UTC 18 February 2019
Temperature: 21.0°C (70°F)
Dewpoint: 10.0°C (50°F) [RH = 49%]
Pressure (altimeter): 29.76 inches Hg (1008.0 mb)
Winds: from the SW (220 degrees) at 14 MPH (12 knots; 6.2 m/s)
Visibility: 6 or more miles (10+ km)
Ceiling: ceiling and visibility are OK
Clouds: unknown
Weather: no significant weather observed at this time

METAR text: OIKB 181400Z 21012KT CAVOK 21/11 Q1008 A2979 NOSIG
Conditions at: OIKB (BANDAR ABBAS INT, IR) observed 1400 UTC 18 February 2019
Temperature: 21.0°C (70°F)
Dewpoint: 11.0°C (52°F) [RH = 53%]
Pressure (altimeter): 29.76 inches Hg (1008.0 mb)
Winds: from the SSW (210 degrees) at 14 MPH (12 knots; 6.2 m/s)
Visibility: 6 or more miles (10+ km)
Ceiling: ceiling and visibility are OK
Clouds: unknown
Weather: no significant weather observed at this time

METAR text: OIKB 181330Z 21012KT CAVOK 23/10 Q1008 A2979
Conditions at: OIKB (BANDAR ABBAS INT, IR) observed 1330 UTC 18 February 2019
Temperature: 23.0°C (73°F)
Dewpoint: 10.0°C (50°F) [RH = 44%]
Pressure (altimeter): 29.76 inches Hg (1008.0 mb)
Winds: from the SSW (210 degrees) at 14 MPH (12 knots; 6.2 m/s)
Visibility: 6 or more miles (10+ km)
Ceiling: ceiling and visibility are OK
Clouds: unknown
Weather: no significant weather observed at this time

METAR text: OIKB 181300Z 21012KT CAVOK 23/10 Q1008 A2979 NOSIG
Conditions at: OIKB (BANDAR ABBAS INT, IR) observed 1300 UTC 18 February 2019
Temperature: 23.0°C (73°F)
Dewpoint: 10.0°C (50°F) [RH = 44%]
Pressure (altimeter): 29.76 inches Hg (1008.0 mb)
Winds: from the SSW (210 degrees) at 14 MPH (12 knots; 6.2 m/s)
Visibility: 6 or more miles (10+ km)
Ceiling: ceiling and visibility are OK
Clouds: unknown
Weather: no significant weather observed at this time

METAR text: OIKB 181230Z 21010KT 9999 FEW020 SCT200 23/11 Q1009 A2979
Conditions at: OIKB (BANDAR ABBAS INT, IR) observed 1230 UTC 18 February 2019
Temperature: 23.0°C (73°F)
Dewpoint: 11.0°C (52°F) [RH = 47%]
Pressure (altimeter): 29.79 inches Hg (1009.0 mb)
Winds: from the SSW (210 degrees) at 12 MPH (10 knots; 5.1 m/s)
Visibility: 6 or more miles (10+ km)
Ceiling: at least 12,000 feet AGL
Clouds: few clouds at 2000 feet AGL
scattered clouds at 20000 feet AGL
Weather: no significant weather observed at this time

METAR text: OIKB 181200Z 20012KT 9999 FEW020 BKN200 23/11 Q1009 A2980 NOSIG
Conditions at: OIKB (BANDAR ABBAS INT, IR) observed 1200 UTC 18 February 2019
Temperature: 23.0°C (73°F)
Dewpoint: 11.0°C (52°F) [RH = 47%]
Pressure (altimeter): 29.79 inches Hg (1009.0 mb)
Winds: from the SSW (200 degrees) at 14 MPH (12 knots; 6.2 m/s)
Visibility: 6 or more miles (10+ km)
Ceiling: 20000 feet AGL
Clouds: few clouds at 2000 feet AGL
broken clouds at 20000 feet AGL
Weather: no significant weather observed at this time

METAR text: OIKB 181130Z 19012KT 9999 FEW020 BKN200 23/11 Q1009 A2981
Conditions at: OIKB (BANDAR ABBAS INT, IR) observed 1130 UTC 18 February 2019
Temperature: 23.0°C (73°F)
Dewpoint: 11.0°C (52°F) [RH = 47%]
Pressure (altimeter): 29.79 inches Hg (1009.0 mb)
Winds: from the S (190 degrees) at 14 MPH (12 knots; 6.2 m/s)
Visibility: 6 or more miles (10+ km)
Ceiling: 20000 feet AGL
Clouds: few clouds at 2000 feet AGL
broken clouds at 20000 feet AGL
Weather: no significant weather observed at this time

METAR text: OIKB 181100Z 21012KT CAVOK 23/11 Q1009 A2982 NOSIG
Conditions at: OIKB (BANDAR ABBAS INT, IR) observed 1100 UTC 18 February 2019
Temperature: 23.0°C (73°F)
Dewpoint: 11.0°C (52°F) [RH = 47%]
Pressure (altimeter): 29.79 inches Hg (1009.0 mb)
Winds: from the SSW (210 degrees) at 14 MPH (12 knots; 6.2 m/s)
Visibility: 6 or more miles (10+ km)
Ceiling: ceiling and visibility are OK
Clouds: unknown
Weather: no significant weather observed at this time

METAR text: OIKB 181030Z 21012KT 9999 FEW025 SCT200 23/10 Q1010 A2984
Conditions at: OIKB (BANDAR ABBAS INT, IR) observed 1030 UTC 18 February 2019
Temperature: 23.0°C (73°F)
Dewpoint: 10.0°C (50°F) [RH = 44%]
Pressure (altimeter): 29.82 inches Hg (1010.0 mb)
Winds: from the SSW (210 degrees) at 14 MPH (12 knots; 6.2 m/s)
Visibility: 6 or more miles (10+ km)
Ceiling: at least 12,000 feet AGL
Clouds: few clouds at 2500 feet AGL
scattered clouds at 20000 feet AGL
Weather: no significant weather observed at this time

METAR text: OIKB 181000Z 22012KT 9999 FEW025 SCT200 24/09 Q1011 A2986 NOSIG
Conditions at: OIKB (BANDAR ABBAS INT, IR) observed 1000 UTC 18 February 2019
Temperature: 24.0°C (75°F)
Dewpoint: 9.0°C (48°F) [RH = 38%]
Pressure (altimeter): 29.85 inches Hg (1011.0 mb)
Winds: from the SW (220 degrees) at 14 MPH (12 knots; 6.2 m/s)
Visibility: 6 or more miles (10+ km)
Ceiling: at least 12,000 feet AGL
Clouds: few clouds at 2500 feet AGL
scattered clouds at 20000 feet AGL
Weather: no significant weather observed at this time

METAR text: OIKB 180930Z 22012KT 9999 FEW025 23/09 Q1012 A2988
Conditions at: OIKB (BANDAR ABBAS INT, IR) observed 0930 UTC 18 February 2019
Temperature: 23.0°C (73°F)
Dewpoint: 9.0°C (48°F) [RH = 41%]
Pressure (altimeter): 29.88 inches Hg (1012.0 mb)
Winds: from the SW (220 degrees) at 14 MPH (12 knots; 6.2 m/s)
Visibility: 6 or more miles (10+ km)
Ceiling: at least 12,000 feet AGL
Clouds: few clouds at 2500 feet AGL
Weather: no significant weather observed at this time

METAR text: OIKB 180900Z 22012KT 9999 FEW025 23/09 Q1012 A2988 NOSIG
Conditions at: OIKB (BANDAR ABBAS INT, IR) observed 0900 UTC 18 February 2019
Temperature: 23.0°C (73°F)
Dewpoint: 9.0°C (48°F) [RH = 41%]
Pressure (altimeter): 29.88 inches Hg (1012.0 mb)
Winds: from the SW (220 degrees) at 14 MPH (12 knots; 6.2 m/s)
Visibility: 6 or more miles (10+ km)
Ceiling: at least 12,000 feet AGL
Clouds: few clouds at 2500 feet AGL
Weather: no significant weather observed at this time

METAR text: OIKB 180830Z 21012KT 9999 FEW025 23/11 Q1012 A2990
Conditions at: OIKB (BANDAR ABBAS INT, IR) observed 0830 UTC 18 February 2019
Temperature: 23.0°C (73°F)
Dewpoint: 11.0°C (52°F) [RH = 47%]
Pressure (altimeter): 29.88 inches Hg (1012.0 mb)
Winds: from the SSW (210 degrees) at 14 MPH (12 knots; 6.2 m/s)
Visibility: 6 or more miles (10+ km)
Ceiling: at least 12,000 feet AGL
Clouds: few clouds at 2500 feet AGL
Weather: no significant weather observed at this time

METAR text: OIKB 180800Z 21010KT 9999 FEW025 22/09 Q1013 A2994 NOSIG
Conditions at: OIKB (BANDAR ABBAS INT, IR) observed 0800 UTC 18 February 2019
Temperature: 22.0°C (72°F)
Dewpoint: 9.0°C (48°F) [RH = 43%]
Pressure (altimeter): 29.91 inches Hg (1013.0 mb)
Winds: from the SSW (210 degrees) at 12 MPH (10 knots; 5.1 m/s)
Visibility: 6 or more miles (10+ km)
Ceiling: at least 12,000 feet AGL
Clouds: few clouds at 2500 feet AGL
Weather: no significant weather observed at this time

METAR text: OIKB 180730Z 28006KT 9999 FEW025 22/09 Q1013 A2994
Conditions at: OIKB (BANDAR ABBAS INT, IR) observed 0730 UTC 18 February 2019
Temperature: 22.0°C (72°F)
Dewpoint: 9.0°C (48°F) [RH = 43%]
Pressure (altimeter): 29.91 inches Hg (1013.0 mb)
Winds: from the W (280 degrees) at 7 MPH (6 knots; 3.1 m/s)
Visibility: 6 or more miles (10+ km)
Ceiling: at least 12,000 feet AGL
Clouds: few clouds at 2500 feet AGL
Weather: no significant weather observed at this time

METAR text: OIKB 180700Z 28006KT 9999 FEW025 22/09 Q1013 A2994 NOSIG
Conditions at: OIKB (BANDAR ABBAS INT, IR) observed 0700 UTC 18 February 2019
Temperature: 22.0°C (72°F)
Dewpoint: 9.0°C (48°F) [RH = 43%]
Pressure (altimeter): 29.91 inches Hg (1013.0 mb)
Winds: from the W (280 degrees) at 7 MPH (6 knots; 3.1 m/s)
Visibility: 6 or more miles (10+ km)
Ceiling: at least 12,000 feet AGL
Clouds: few clouds at 2500 feet AGL
Weather: no significant weather observed at this time

METAR text: OIKB 180630Z 27004KT 9999 FEW025 21/10 Q1013 A2994
Conditions at: OIKB (BANDAR ABBAS INT, IR) observed 0630 UTC 18 February 2019
Temperature: 21.0°C (70°F)
Dewpoint: 10.0°C (50°F) [RH = 49%]
Pressure (altimeter): 29.91 inches Hg (1013.0 mb)
Winds: from the W (270 degrees) at 5 MPH (4 knots; 2.1 m/s)
Visibility: 6 or more miles (10+ km)
Ceiling: at least 12,000 feet AGL
Clouds: few clouds at 2500 feet AGL
Weather: no significant weather observed at this time

METAR text: OIKB 180600Z 27006KT CAVOK 21/11 Q1013 A2994 NOSIG
Conditions at: OIKB (BANDAR ABBAS INT, IR) observed 0600 UTC 18 February 2019
Temperature: 21.0°C (70°F)
Dewpoint: 11.0°C (52°F) [RH = 53%]
Pressure (altimeter): 29.91 inches Hg (1013.0 mb)
Winds: from the W (270 degrees) at 7 MPH (6 knots; 3.1 m/s)
Visibility: 6 or more miles (10+ km)
Ceiling: ceiling and visibility are OK
Clouds: unknown
Weather: no significant weather observed at this time

METAR text: OIKB 180530Z 29006KT 7000 NSC 20/11 Q1013 A2994
Conditions at: OIKB (BANDAR ABBAS INT, IR) observed 0530 UTC 18 February 2019
Temperature: 20.0°C (68°F)
Dewpoint: 11.0°C (52°F) [RH = 56%]
Pressure (altimeter): 29.91 inches Hg (1013.0 mb)
Winds: from the WNW (290 degrees) at 7 MPH (6 knots; 3.1 m/s)
Visibility: 4 miles ( 7 km)
Ceiling: at least 12,000 feet AGL
Clouds: sky clear below 12,000 feet AGL
Weather: no significant weather observed at this time

METAR text: OIKB 180500Z VRB02KT 6000 HZ NSC 20/14 Q1013 A2992 NOSIG
Conditions at: OIKB (BANDAR ABBAS INT, IR) observed 0500 UTC 18 February 2019
Temperature: 20.0°C (68°F)
Dewpoint: 14.0°C (57°F) [RH = 68%]
Pressure (altimeter): 29.91 inches Hg (1013.0 mb)
Winds: variable direction winds at 2 MPH (2 knots; 1.0 m/s)
Visibility: 4 miles ( 6 km)
Ceiling: at least 12,000 feet AGL
Clouds: sky clear below 12,000 feet AGL
Weather: HZ  (haze)

METAR text: OIKB 180430Z VRB02KT 4000 HZ NSC 19/13 Q1013 A2992
Conditions at: OIKB (BANDAR ABBAS INT, IR) observed 0430 UTC 18 February 2019
Temperature: 19.0°C (66°F)
Dewpoint: 13.0°C (55°F) [RH = 68%]
Pressure (altimeter): 29.91 inches Hg (1013.0 mb)
Winds: variable direction winds at 2 MPH (2 knots; 1.0 m/s)
Visibility: 2.49 miles (4.01 km)
Ceiling: at least 12,000 feet AGL
Clouds: sky clear below 12,000 feet AGL
Weather: HZ  (haze)

METAR text: OIKB 180400Z VRB02KT 4000 BR NSC 17/15 Q1012 A2991 NOSIG
Conditions at: OIKB (BANDAR ABBAS INT, IR) observed 0400 UTC 18 February 2019
Temperature: 17.0°C (63°F)
Dewpoint: 15.0°C (59°F) [RH = 88%]
Pressure (altimeter): 29.88 inches Hg (1012.0 mb)
Winds: variable direction winds at 2 MPH (2 knots; 1.0 m/s)
Visibility: 2.49 miles (4.01 km)
Ceiling: at least 12,000 feet AGL
Clouds: sky clear below 12,000 feet AGL
Weather: BR  (mist)

METAR text: OIKB 180330Z 36004KT 4000 BR NSC 15/13 Q1012 A2990
Conditions at: OIKB (BANDAR ABBAS INT, IR) observed 0330 UTC 18 February 2019
Temperature: 15.0°C (59°F)
Dewpoint: 13.0°C (55°F) [RH = 88%]
Pressure (altimeter): 29.88 inches Hg (1012.0 mb)
Winds: from the N (360 degrees) at 5 MPH (4 knots; 2.1 m/s)
Visibility: 2.49 miles (4.01 km)
Ceiling: at least 12,000 feet AGL
Clouds: sky clear below 12,000 feet AGL
Weather: BR  (mist)

METAR text: OIKB 180300Z VRB02KT 7000 NSC 16/13 Q1012 A2989 NOSIG
Conditions at: OIKB (BANDAR ABBAS INT, IR) observed 0300 UTC 18 February 2019
Temperature: 16.0°C (61°F)
Dewpoint: 13.0°C (55°F) [RH = 82%]
Pressure (altimeter): 29.88 inches Hg (1012.0 mb)
Winds: variable direction winds at 2 MPH (2 knots; 1.0 m/s)
Visibility: 4 miles ( 7 km)
Ceiling: at least 12,000 feet AGL
Clouds: sky clear below 12,000 feet AGL
Weather: no significant weather observed at this time

METAR text: OIKB 180230Z 30004KT 7000 NSC 15/13 Q1011 A2988
Conditions at: OIKB (BANDAR ABBAS INT, IR) observed 0230 UTC 18 February 2019
Temperature: 15.0°C (59°F)
Dewpoint: 13.0°C (55°F) [RH = 88%]
Pressure (altimeter): 29.85 inches Hg (1011.0 mb)
Winds: from the WNW (300 degrees) at 5 MPH (4 knots; 2.1 m/s)
Visibility: 4 miles ( 7 km)
Ceiling: at least 12,000 feet AGL
Clouds: sky clear below 12,000 feet AGL
Weather: no significant weather observed at this time

METAR text: OIKB 180200Z 26004KT 7000 NSC 18/13 Q1011 A2987
Conditions at: OIKB (BANDAR ABBAS INT, IR) observed 0200 UTC 18 February 2019
Temperature: 18.0°C (64°F)
Dewpoint: 13.0°C (55°F) [RH = 73%]
Pressure (altimeter): 29.85 inches Hg (1011.0 mb)
Winds: from the W (260 degrees) at 5 MPH (4 knots; 2.1 m/s)
Visibility: 4 miles ( 7 km)
Ceiling: at least 12,000 feet AGL
Clouds: sky clear below 12,000 feet AGL
Weather: no significant weather observed at this time

METAR text: OIKB 180100Z 25008KT 7000 FEW100 18/14 Q1011 A2986
Conditions at: OIKB (BANDAR ABBAS INT, IR) observed 0100 UTC 18 February 2019
Temperature: 18.0°C (64°F)
Dewpoint: 14.0°C (57°F) [RH = 77%]
Pressure (altimeter): 29.85 inches Hg (1011.0 mb)
Winds: from the WSW (250 degrees) at 9 MPH (8 knots; 4.1 m/s)
Visibility: 4 miles ( 7 km)
Ceiling: at least 12,000 feet AGL
Clouds: few clouds at 10000 feet AGL
Weather: no significant weather observed at this time

METAR text: OIKB 180000Z 23008KT 5000 HZ NSC 19/15 Q1011 A2986
Conditions at: OIKB (BANDAR ABBAS INT, IR) observed 0000 UTC 18 February 2019
Temperature: 19.0°C (66°F)
Dewpoint: 15.0°C (59°F) [RH = 78%]
Pressure (altimeter): 29.85 inches Hg (1011.0 mb)
Winds: from the SW (230 degrees) at 9 MPH (8 knots; 4.1 m/s)
Visibility: 3 miles ( 5 km)
Ceiling: at least 12,000 feet AGL
Clouds: sky clear below 12,000 feet AGL
Weather: HZ  (haze)

METAR text: OIKB 172300Z 24008KT 4500 BR NSC 19/16 Q1011 A2986
Conditions at: OIKB (BANDAR ABBAS INT, IR) observed 2300 UTC 17 February 2019
Temperature: 19.0°C (66°F)
Dewpoint: 16.0°C (61°F) [RH = 83%]
Pressure (altimeter): 29.85 inches Hg (1011.0 mb)
Winds: from the WSW (240 degrees) at 9 MPH (8 knots; 4.1 m/s)
Visibility: 2.80 miles (4.51 km)
Ceiling: at least 12,000 feet AGL
Clouds: sky clear below 12,000 feet AGL
Weather: BR  (mist)

METAR text: OIKB 172200Z 26006KT 4000 BR NSC 19/17 Q1011 A2986
Conditions at: OIKB (BANDAR ABBAS INT, IR) observed 2200 UTC 17 February 2019
Temperature: 19.0°C (66°F)
Dewpoint: 17.0°C (63°F) [RH = 88%]
Pressure (altimeter): 29.85 inches Hg (1011.0 mb)
Winds: from the W (260 degrees) at 7 MPH (6 knots; 3.1 m/s)
Visibility: 2.49 miles (4.01 km)
Ceiling: at least 12,000 feet AGL
Clouds: sky clear below 12,000 feet AGL
Weather: BR  (mist)

METAR text: OIKB 172130Z 27006KT 4500 BR FEW000 19/17 Q1011 A2986
Conditions at: OIKB (BANDAR ABBAS INT, IR) observed 2130 UTC 17 February 2019
Temperature: 19.0°C (66°F)
Dewpoint: 17.0°C (63°F) [RH = 88%]
Pressure (altimeter): 29.85 inches Hg (1011.0 mb)
Winds: from the W (270 degrees) at 7 MPH (6 knots; 3.1 m/s)
Visibility: 2.80 miles (4.51 km)
Ceiling: at least 12,000 feet AGL
Clouds: few clouds at 0 feet AGL
Weather: BR  (mist)

METAR text: OIKB 172100Z 25006KT 4500 BR FEW000 20/17 Q1011 A2987
Conditions at: OIKB (BANDAR ABBAS INT, IR) observed 2100 UTC 17 February 2019
Temperature: 20.0°C (68°F)
Dewpoint: 17.0°C (63°F) [RH = 83%]
Pressure (altimeter): 29.85 inches Hg (1011.0 mb)
Winds: from the WSW (250 degrees) at 7 MPH (6 knots; 3.1 m/s)
Visibility: 2.80 miles (4.51 km)
Ceiling: at least 12,000 feet AGL
Clouds: few clouds at 0 feet AGL
Weather: BR  (mist)

METAR text: OIKB 172030Z 24008KT 5000 BR FEW100 20/17 Q1011 A2987
Conditions at: OIKB (BANDAR ABBAS INT, IR) observed 2030 UTC 17 February 2019
Temperature: 20.0°C (68°F)
Dewpoint: 17.0°C (63°F) [RH = 83%]
Pressure (altimeter): 29.85 inches Hg (1011.0 mb)
Winds: from the WSW (240 degrees) at 9 MPH (8 knots; 4.1 m/s)
Visibility: 3 miles ( 5 km)
Ceiling: at least 12,000 feet AGL
Clouds: few clouds at 10000 feet AGL
Weather: BR  (mist)

METAR text: OIKB 172000Z 23006KT 5000 BR FEW100 20/17 Q1011 A2988
Conditions at: OIKB (BANDAR ABBAS INT, IR) observed 2000 UTC 17 February 2019
Temperature: 20.0°C (68°F)
Dewpoint: 17.0°C (63°F) [RH = 83%]
Pressure (altimeter): 29.85 inches Hg (1011.0 mb)
Winds: from the SW (230 degrees) at 7 MPH (6 knots; 3.1 m/s)
Visibility: 3 miles ( 5 km)
Ceiling: at least 12,000 feet AGL
Clouds: few clouds at 10000 feet AGL
Weather: BR  (mist)

METAR text: OIKB 171930Z 24008KT 5000 BR NSC 20/18 Q1011 A2988
Conditions at: OIKB (BANDAR ABBAS INT, IR) observed 1930 UTC 17 February 2019
Temperature: 20.0°C (68°F)
Dewpoint: 18.0°C (64°F) [RH = 88%]
Pressure (altimeter): 29.85 inches Hg (1011.0 mb)
Winds: from the WSW (240 degrees) at 9 MPH (8 knots; 4.1 m/s)
Visibility: 3 miles ( 5 km)
Ceiling: at least 12,000 feet AGL
Clouds: sky clear below 12,000 feet AGL
Weather: BR  (mist)

METAR text: OIKB 171900Z 25008KT 5000 BR NSC 20/18 Q1012 A2988
Conditions at: OIKB (BANDAR ABBAS INT, IR) observed 1900 UTC 17 February 2019
Temperature: 20.0°C (68°F)
Dewpoint: 18.0°C (64°F) [RH = 88%]
Pressure (altimeter): 29.88 inches Hg (1012.0 mb)
Winds: from the WSW (250 degrees) at 9 MPH (8 knots; 4.1 m/s)
Visibility: 3 miles ( 5 km)
Ceiling: at least 12,000 feet AGL
Clouds: sky clear below 12,000 feet AGL
Weather: BR  (mist)

Forecast for: OIKB (BANDAR ABBAS INT, IR)
Text: TAF OIKB 190530Z 1906/2012 02006KT 8000 FEW035CB SCT040 BKN090
Forecast period: 0600 to 1800 UTC 19 February 2019
Forecast type: FROM: standard forecast or significant change
Winds: from the NNE (20 degrees) at 7 MPH (6 knots; 3.1 m/s)
Visibility: 5 miles (8 km)
Ceiling: 9000 feet AGL
Clouds: few clouds at 3500 feet AGL
scattered clouds at 4000 feet AGL
broken clouds at 9000 feet AGL
Weather: no significant weather forecast for this period
Text: TEMPO 1912/1918 21010KT 5000 TS/RA SCT030CB SCT035 OVC090
Forecast period: 1200 to 1800 UTC 19 February 2019
Forecast type: TEMPORARY: The following changes expected for less than half the time period
Winds: from the SSW (210 degrees) at 12 MPH (10 knots; 5.1 m/s)
Visibility: 3 miles (5 km)
Ceiling: 9000 feet AGL
Clouds: scattered clouds at 3000 feet AGL
scattered clouds at 3500 feet AGL
overcast cloud deck at 9000 feet AGL
Weather: TS RA  (thunderstorm, moderate rain)
Text: BECMG 1918/1920 3000 HZ
Forecast period: 1800 UTC 19 February 2019 to 0500 UTC 20 February 2019
Forecast type: BECOMING: Conditions expected to become as follows by 2000 UTC 19 February 2019
Winds: from the NNE (20 degrees) at 7 MPH (6 knots; 3.1 m/s)
Visibility: 1.86 miles (2.99 km)
Ceiling: 9000 feet AGL
Clouds: few clouds at 3500 feet AGL
scattered clouds at 4000 feet AGL
broken clouds at 9000 feet AGL
Weather: HZ  (haze)
Text: BECMG 2005/2007 8000 NSC
Forecast period: 0500 to 1200 UTC 20 February 2019
Forecast type: BECOMING: Conditions expected to become as follows by 0700 UTC 20 February 2019
Winds: from the NNE (20 degrees) at 7 MPH (6 knots; 3.1 m/s)
Visibility: 5 miles (8 km)
Ceiling: unknown
Clouds: missing
Weather: HZ  (haze)